sensor_id;sensor_type;location;lat;lon;timestamp;pressure;altitude;pressure_sealevel;temperature;humidity
35694;BME280;21812;55.536;37.664;2023-02-22T00:00:37;98470.72;;;-11.90;57.74
35694;BME280;21812;55.536;37.664;2023-02-22T00:03:19;98479.59;;;-11.80;57.90
35694;BME280;21812;55.536;37.664;2023-02-22T00:05:54;98436.53;;;-12.10;57.76
35694;BME280;21812;55.536;37.664;2023-02-22T00:08:25;98441.53;;;-12.07;57.24
35694;BME280;21812;55.536;37.664;2023-02-22T00:10:59;98495.13;;;-11.82;57.68
35694;BME280;21812;55.536;37.664;2023-02-22T00:13:25;98489.66;;;-11.75;57.20
35694;BME280;21812;55.536;37.664;2023-02-22T00:15:54;98490.06;;;-11.67;57.20
35694;BME280;21812;55.536;37.664;2023-02-22T00:18:20;98500.69;;;-11.73;57.05
35694;BME280;21812;55.536;37.664;2023-02-22T00:20:46;98499.69;;;-11.87;56.98
35694;BME280;21812;55.536;37.664;2023-02-22T00:23:14;98468.84;;;-12.04;57.45
35694;BME280;21812;55.536;37.664;2023-02-22T00:25:40;98507.44;;;-11.71;57.48
35694;BME280;21812;55.536;37.664;2023-02-22T00:28:06;98511.31;;;-11.80;56.92
35694;BME280;21812;55.536;37.664;2023-02-22T00:30:33;98511.47;;;-11.83;57.76
35694;BME280;21812;55.536;37.664;2023-02-22T00:32:59;98513.84;;;-11.78;57.31
35694;BME280;21812;55.536;37.664;2023-02-22T00:35:27;98515.72;;;-11.82;57.58
35694;BME280;21812;55.536;37.664;2023-02-22T00:37:56;98481.19;;;-12.11;57.33
35694;BME280;21812;55.536;37.664;2023-02-22T00:40:25;98487.88;;;-12.07;57.45
35694;BME280;21812;55.536;37.664;2023-02-22T00:42:51;98519.88;;;-11.95;57.62
35694;BME280;21812;55.536;37.664;2023-02-22T00:45:22;98493.56;;;-12.17;57.68
35694;BME280;21812;55.536;37.664;2023-02-22T00:47:48;98524.88;;;-12.09;57.74
35694;BME280;21812;55.536;37.664;2023-02-22T00:50:16;98531.16;;;-12.15;57.76
35694;BME280;21812;55.536;37.664;2023-02-22T00:52:42;98534.50;;;-12.13;58.05
35694;BME280;21812;55.536;37.664;2023-02-22T00:55:10;98536.63;;;-12.21;57.51
35694;BME280;21812;55.536;37.664;2023-02-22T00:57:36;98541.25;;;-12.10;57.88
35694;BME280;21812;55.536;37.664;2023-02-22T01:00:05;98544.88;;;-12.14;57.62
35694;BME280;21812;55.536;37.664;2023-02-22T01:02:38;98541.69;;;-12.20;57.62
35694;BME280;21812;55.536;37.664;2023-02-22T01:05:10;98551.94;;;-12.18;57.61
35694;BME280;21812;55.536;37.664;2023-02-22T01:07:38;98549.13;;;-12.13;57.75
35694;BME280;21812;55.536;37.664;2023-02-22T01:10:05;98556.22;;;-12.18;58.01
35694;BME280;21812;55.536;37.664;2023-02-22T01:12:33;98545.94;;;-12.18;57.53
35694;BME280;21812;55.536;37.664;2023-02-22T01:15:00;98561.97;;;-12.13;57.29
35694;BME280;21812;55.536;37.664;2023-02-22T01:17:26;98561.53;;;-12.22;57.77
35694;BME280;21812;55.536;37.664;2023-02-22T01:19:52;98568.50;;;-12.24;58.08
35694;BME280;21812;55.536;37.664;2023-02-22T01:22:19;98562.59;;;-12.08;57.98
35694;BME280;21812;55.536;37.664;2023-02-22T01:24:49;98561.38;;;-12.01;57.37
35694;BME280;21812;55.536;37.664;2023-02-22T01:27:16;98549.75;;;-12.26;57.15
35694;BME280;21812;55.536;37.664;2023-02-22T01:29:43;98565.25;;;-12.10;57.59
35694;BME280;21812;55.536;37.664;2023-02-22T01:32:09;98577.88;;;-12.23;56.83
35694;BME280;21812;55.536;37.664;2023-02-22T01:34:36;98585.44;;;-12.37;57.53
35694;BME280;21812;55.536;37.664;2023-02-22T01:37:02;98585.06;;;-12.47;58.18
35694;BME280;21812;55.536;37.664;2023-02-22T01:39:29;98592.25;;;-12.36;57.98
35694;BME280;21812;55.536;37.664;2023-02-22T01:41:54;98591.19;;;-12.32;58.03
35694;BME280;21812;55.536;37.664;2023-02-22T01:46:53;98597.19;;;-12.31;57.71
35694;BME280;21812;55.536;37.664;2023-02-22T01:49:19;98604.97;;;-12.33;57.89
35694;BME280;21812;55.536;37.664;2023-02-22T01:51:48;98598.44;;;-12.40;57.72
35694;BME280;21812;55.536;37.664;2023-02-22T01:54:25;98566.69;;;-12.75;57.47
35694;BME280;21812;55.536;37.664;2023-02-22T01:59:26;98610.28;;;-12.55;57.79
35694;BME280;21812;55.536;37.664;2023-02-22T02:01:54;98616.25;;;-12.54;58.13
35694;BME280;21812;55.536;37.664;2023-02-22T02:04:23;98621.28;;;-12.51;58.39
35694;BME280;21812;55.536;37.664;2023-02-22T02:06:56;98585.19;;;-12.86;58.09
35694;BME280;21812;55.536;37.664;2023-02-22T02:09:35;98570.06;;;-12.92;58.38
35694;BME280;21812;55.536;37.664;2023-02-22T02:12:02;98628.47;;;-12.58;58.66
35694;BME280;21812;55.536;37.664;2023-02-22T02:14:30;98624.06;;;-12.56;58.51
35694;BME280;21812;55.536;37.664;2023-02-22T02:17:07;98549.22;;;-12.86;58.85
35694;BME280;21812;55.536;37.664;2023-02-22T02:28:08;98628.44;;;-12.22;58.58
35694;BME280;21812;55.536;37.664;2023-02-22T02:33:33;98604.72;;;-12.28;58.09
35694;BME280;21812;55.536;37.664;2023-02-22T02:36:07;98656.47;;;-11.98;58.19
35694;BME280;21812;55.536;37.664;2023-02-22T02:43:56;98662.66;;;-12.20;58.26
35694;BME280;21812;55.536;37.664;2023-02-22T02:46:45;98628.22;;;-12.53;58.25
35694;BME280;21812;55.536;37.664;2023-02-22T02:49:24;98618.25;;;-12.60;57.77
35694;BME280;21812;55.536;37.664;2023-02-22T02:51:55;98624.22;;;-12.78;57.78
35694;BME280;21812;55.536;37.664;2023-02-22T02:54:23;98676.22;;;-12.52;57.42
35694;BME280;21812;55.536;37.664;2023-02-22T02:56:51;98672.25;;;-12.60;57.62
35694;BME280;21812;55.536;37.664;2023-02-22T03:12:54;98691.78;;;-12.74;57.91
35694;BME280;21812;55.536;37.664;2023-02-22T03:18:07;98704.56;;;-12.92;58.41
35694;BME280;21812;55.536;37.664;2023-02-22T03:20:40;98707.50;;;-12.81;58.56
35694;BME280;21812;55.536;37.664;2023-02-22T03:23:24;98710.13;;;-12.63;58.54
35694;BME280;21812;55.536;37.664;2023-02-22T03:26:10;98698.66;;;-12.75;58.21
35694;BME280;21812;55.536;37.664;2023-02-22T03:28:40;98697.28;;;-12.82;57.75
35694;BME280;21812;55.536;37.664;2023-02-22T03:31:19;98679.63;;;-12.90;58.02
35694;BME280;21812;55.536;37.664;2023-02-22T03:33:51;98696.97;;;-12.95;57.60
35694;BME280;21812;55.536;37.664;2023-02-22T03:36:23;98729.25;;;-12.69;57.63
35694;BME280;21812;55.536;37.664;2023-02-22T03:38:52;98718.38;;;-12.75;57.11
35694;BME280;21812;55.536;37.664;2023-02-22T03:41:23;98725.28;;;-12.76;57.94
35694;BME280;21812;55.536;37.664;2023-02-22T03:43:55;98726.66;;;-12.88;57.47
35694;BME280;21812;55.536;37.664;2023-02-22T03:46:25;98730.81;;;-12.85;58.11
35694;BME280;21812;55.536;37.664;2023-02-22T03:49:22;98731.78;;;-12.88;58.00
35694;BME280;21812;55.536;37.664;2023-02-22T03:51:52;98724.53;;;-12.04;60.95
35694;BME280;21812;55.536;37.664;2023-02-22T03:54:20;98737.06;;;-11.26;58.50
35694;BME280;21812;55.536;37.664;2023-02-22T03:56:55;98660.22;;;-11.02;57.14
35694;BME280;21812;55.536;37.664;2023-02-22T03:59:22;98744.88;;;-10.13;57.34
35694;BME280;21812;55.536;37.664;2023-02-22T04:01:52;98743.03;;;-10.11;56.10
35694;BME280;21812;55.536;37.664;2023-02-22T04:04:19;98760.47;;;-10.31;56.91
35694;BME280;21812;55.536;37.664;2023-02-22T04:06:47;98750.22;;;-10.00;57.04
35694;BME280;21812;55.536;37.664;2023-02-22T04:09:13;98760.38;;;-10.29;52.72
35694;BME280;21812;55.536;37.664;2023-02-22T04:11:39;98765.66;;;-10.64;55.11
35694;BME280;21812;55.536;37.664;2023-02-22T04:14:04;98769.00;;;-10.95;54.02
35694;BME280;21812;55.536;37.664;2023-02-22T04:16:30;98761.59;;;-11.02;55.13
35694;BME280;21812;55.536;37.664;2023-02-22T04:18:56;98759.31;;;-10.90;56.65
35694;BME280;21812;55.536;37.664;2023-02-22T04:21:22;98747.47;;;-10.94;55.21
35694;BME280;21812;55.536;37.664;2023-02-22T04:23:49;98757.59;;;-10.74;57.73
35694;BME280;21812;55.536;37.664;2023-02-22T04:26:15;98757.97;;;-10.32;57.16
35694;BME280;21812;55.536;37.664;2023-02-22T04:28:43;98778.56;;;-10.31;54.32
35694;BME280;21812;55.536;37.664;2023-02-22T04:31:13;98779.28;;;-10.29;57.76
35694;BME280;21812;55.536;37.664;2023-02-22T04:33:39;98768.72;;;-10.08;55.04
35694;BME280;21812;55.536;37.664;2023-02-22T04:36:06;98785.03;;;-10.39;54.54
35694;BME280;21812;55.536;37.664;2023-02-22T04:38:33;98786.09;;;-10.44;57.10
35694;BME280;21812;55.536;37.664;2023-02-22T04:40:59;98789.38;;;-10.08;56.69
35694;BME280;21812;55.536;37.664;2023-02-22T04:43:26;98789.78;;;-9.84;53.77
35694;BME280;21812;55.536;37.664;2023-02-22T04:45:58;98793.44;;;-9.26;55.12
35694;BME280;21812;55.536;37.664;2023-02-22T04:48:23;98792.34;;;-9.68;50.81
35694;BME280;21812;55.536;37.664;2023-02-22T04:50:49;98788.16;;;-9.55;51.82
35694;BME280;21812;55.536;37.664;2023-02-22T04:53:17;98793.31;;;-8.94;55.85
35694;BME280;21812;55.536;37.664;2023-02-22T04:55:43;98799.66;;;-8.70;52.64
35694;BME280;21812;55.536;37.664;2023-02-22T04:58:09;98807.22;;;-8.67;50.77
35694;BME280;21812;55.536;37.664;2023-02-22T05:00:36;98810.91;;;-8.71;51.68
35694;BME280;21812;55.536;37.664;2023-02-22T05:03:02;98804.59;;;-8.23;52.98
35694;BME280;21812;55.536;37.664;2023-02-22T05:05:28;98806.81;;;-8.03;50.80
35694;BME280;21812;55.536;37.664;2023-02-22T05:07:53;98810.13;;;-8.01;50.01
35694;BME280;21812;55.536;37.664;2023-02-22T05:10:21;98814.44;;;-8.57;48.65
35694;BME280;21812;55.536;37.664;2023-02-22T05:12:47;98809.31;;;-9.32;49.05
35694;BME280;21812;55.536;37.664;2023-02-22T05:15:20;98773.53;;;-10.34;49.59
35694;BME280;21812;55.536;37.664;2023-02-22T05:17:46;98820.25;;;-10.54;50.47
35694;BME280;21812;55.536;37.664;2023-02-22T05:20:32;98792.69;;;-11.05;51.84
35694;BME280;21812;55.536;37.664;2023-02-22T05:23:00;98833.81;;;-11.19;52.24
35694;BME280;21812;55.536;37.664;2023-02-22T05:25:26;98840.88;;;-11.59;53.30
35694;BME280;21812;55.536;37.664;2023-02-22T05:27:58;98832.78;;;-11.88;54.07
35694;BME280;21812;55.536;37.664;2023-02-22T05:30:29;98842.59;;;-11.96;54.50
35694;BME280;21812;55.536;37.664;2023-02-22T05:32:55;98860.50;;;-12.12;55.11
35694;BME280;21812;55.536;37.664;2023-02-22T05:35:21;98863.53;;;-12.23;55.41
35694;BME280;21812;55.536;37.664;2023-02-22T05:37:47;98865.34;;;-12.25;55.87
35694;BME280;21812;55.536;37.664;2023-02-22T05:40:17;98838.75;;;-12.44;55.92
35694;BME280;21812;55.536;37.664;2023-02-22T05:42:43;98859.66;;;-12.31;56.14
35694;BME280;21812;55.536;37.664;2023-02-22T05:45:12;98852.44;;;-12.44;56.10
35694;BME280;21812;55.536;37.664;2023-02-22T05:47:38;98865.50;;;-12.28;56.90
35694;BME280;21812;55.536;37.664;2023-02-22T05:50:04;98859.91;;;-12.18;56.10
35694;BME280;21812;55.536;37.664;2023-02-22T05:52:30;98863.00;;;-12.10;55.91
35694;BME280;21812;55.536;37.664;2023-02-22T05:54:56;98869.69;;;-12.06;56.21
35694;BME280;21812;55.536;37.664;2023-02-22T05:57:21;98869.69;;;-12.06;55.70
35694;BME280;21812;55.536;37.664;2023-02-22T05:59:47;98874.66;;;-12.03;55.63
35694;BME280;21812;55.536;37.664;2023-02-22T06:02:13;98869.03;;;-11.92;55.11
35694;BME280;21812;55.536;37.664;2023-02-22T06:04:38;98873.56;;;-11.97;54.63
35694;BME280;21812;55.536;37.664;2023-02-22T06:07:04;98877.75;;;-11.95;55.30
35694;BME280;21812;55.536;37.664;2023-02-22T06:09:30;98878.53;;;-11.93;55.61
35694;BME280;21812;55.536;37.664;2023-02-22T06:11:56;98874.56;;;-11.83;55.19
35694;BME280;21812;55.536;37.664;2023-02-22T06:14:22;98882.75;;;-11.92;55.39
35694;BME280;21812;55.536;37.664;2023-02-22T06:16:55;98884.56;;;-11.94;55.39
35694;BME280;21812;55.536;37.664;2023-02-22T06:19:21;98883.84;;;-11.97;55.67
35694;BME280;21812;55.536;37.664;2023-02-22T06:21:52;98884.00;;;-11.82;55.69
35694;BME280;21812;55.536;37.664;2023-02-22T06:24:18;98890.38;;;-11.71;54.75
35694;BME280;21812;55.536;37.664;2023-02-22T06:26:44;98885.16;;;-11.70;54.72
35694;BME280;21812;55.536;37.664;2023-02-22T06:29:09;98893.41;;;-11.63;54.81
35694;BME280;21812;55.536;37.664;2023-02-22T06:31:35;98890.09;;;-11.65;54.65
35694;BME280;21812;55.536;37.664;2023-02-22T06:34:01;98885.63;;;-11.81;54.60
35694;BME280;21812;55.536;37.664;2023-02-22T06:36:27;98889.84;;;-11.78;55.22
35694;BME280;21812;55.536;37.664;2023-02-22T06:38:55;98876.19;;;-11.80;54.91
35694;BME280;21812;55.536;37.664;2023-02-22T06:41:21;98892.47;;;-11.61;54.72
35694;BME280;21812;55.536;37.664;2023-02-22T06:43:47;98905.69;;;-11.68;54.53
35694;BME280;21812;55.536;37.664;2023-02-22T06:46:13;98895.94;;;-11.81;53.99
35694;BME280;21812;55.536;37.664;2023-02-22T06:48:39;98910.31;;;-11.94;54.93
35694;BME280;21812;55.536;37.664;2023-02-22T06:51:06;98907.78;;;-11.95;54.83
35694;BME280;21812;55.536;37.664;2023-02-22T06:53:33;98915.75;;;-12.00;55.04
35694;BME280;21812;55.536;37.664;2023-02-22T06:55:59;98921.81;;;-12.01;55.46
35694;BME280;21812;55.536;37.664;2023-02-22T06:58:24;98916.84;;;-12.06;55.53
35694;BME280;21812;55.536;37.664;2023-02-22T07:00:51;98918.38;;;-12.02;55.38
35694;BME280;21812;55.536;37.664;2023-02-22T07:03:17;98920.75;;;-11.97;55.25
35694;BME280;21812;55.536;37.664;2023-02-22T07:05:43;98922.28;;;-11.93;55.31
35694;BME280;21812;55.536;37.664;2023-02-22T07:08:09;98930.41;;;-11.83;55.05
35694;BME280;21812;55.536;37.664;2023-02-22T07:10:36;98902.44;;;-12.10;54.95
35694;BME280;21812;55.536;37.664;2023-02-22T07:13:04;98927.00;;;-11.84;55.04
35694;BME280;21812;55.536;37.664;2023-02-22T07:15:32;98860.78;;;-12.18;54.92
35694;BME280;21812;55.536;37.664;2023-02-22T07:17:58;98948.31;;;-11.61;54.19
35694;BME280;21812;55.536;37.664;2023-02-22T07:20:26;98930.75;;;-11.53;53.84
35694;BME280;21812;55.536;37.664;2023-02-22T07:22:52;98929.94;;;-11.72;53.85
35694;BME280;21812;55.536;37.664;2023-02-22T07:25:18;98945.81;;;-11.63;54.27
35694;BME280;21812;55.536;37.664;2023-02-22T07:27:44;98944.94;;;-11.63;53.81
35694;BME280;21812;55.536;37.664;2023-02-22T07:32:53;98948.50;;;-11.47;53.37
35694;BME280;21812;55.536;37.664;2023-02-22T07:35:27;98877.75;;;-11.95;53.62
35694;BME280;21812;55.536;37.664;2023-02-22T07:37:53;98949.50;;;-11.49;53.58
35694;BME280;21812;55.536;37.664;2023-02-22T07:40:19;98956.63;;;-11.37;53.58
35694;BME280;21812;55.536;37.664;2023-02-22T07:42:52;98958.56;;;-11.23;53.34
35694;BME280;21812;55.536;37.664;2023-02-22T07:45:18;98955.09;;;-11.22;52.82
35694;BME280;21812;55.536;37.664;2023-02-22T07:47:47;98969.00;;;-11.07;53.17
35694;BME280;21812;55.536;37.664;2023-02-22T07:50:18;98968.38;;;-11.12;52.92
35694;BME280;21812;55.536;37.664;2023-02-22T07:52:48;98976.94;;;-11.12;53.05
35694;BME280;21812;55.536;37.664;2023-02-22T07:55:15;98962.38;;;-11.30;52.78
35694;BME280;21812;55.536;37.664;2023-02-22T07:57:42;98975.72;;;-11.22;52.56
35694;BME280;21812;55.536;37.664;2023-02-22T08:00:10;98981.28;;;-11.12;52.83
35694;BME280;21812;55.536;37.664;2023-02-22T08:02:40;98980.31;;;-11.10;52.90
35694;BME280;21812;55.536;37.664;2023-02-22T08:05:06;98975.41;;;-10.97;52.65
35694;BME280;21812;55.536;37.664;2023-02-22T08:07:32;98990.13;;;-10.82;52.17
35694;BME280;21812;55.536;37.664;2023-02-22T08:09:58;98988.56;;;-10.67;51.92
35694;BME280;21812;55.536;37.664;2023-02-22T08:12:23;98990.06;;;-10.80;51.93
35694;BME280;21812;55.536;37.664;2023-02-22T08:14:49;98992.34;;;-10.74;52.06
35694;BME280;21812;55.536;37.664;2023-02-22T08:17:15;99000.97;;;-10.56;51.78
35694;BME280;21812;55.536;37.664;2023-02-22T08:19:40;98993.53;;;-10.62;51.30
35694;BME280;21812;55.536;37.664;2023-02-22T08:22:06;98998.59;;;-10.60;52.07
35694;BME280;21812;55.536;37.664;2023-02-22T08:24:31;99008.63;;;-10.54;51.62
35694;BME280;21812;55.536;37.664;2023-02-22T08:26:57;98998.91;;;-10.32;51.55
35694;BME280;21812;55.536;37.664;2023-02-22T08:29:23;99009.78;;;-10.09;51.19
35694;BME280;21812;55.536;37.664;2023-02-22T08:31:52;99007.53;;;-10.15;50.45
35694;BME280;21812;55.536;37.664;2023-02-22T08:34:18;99010.56;;;-10.25;50.53
35694;BME280;21812;55.536;37.664;2023-02-22T08:36:44;99014.44;;;-10.16;50.37
35694;BME280;21812;55.536;37.664;2023-02-22T08:39:10;99015.63;;;-10.06;49.68
35694;BME280;21812;55.536;37.664;2023-02-22T08:41:35;99015.72;;;-10.07;50.01
35694;BME280;21812;55.536;37.664;2023-02-22T08:44:01;99016.47;;;-10.05;50.03
35694;BME280;21812;55.536;37.664;2023-02-22T08:46:27;99024.97;;;-9.86;49.48
35694;BME280;21812;55.536;37.664;2023-02-22T08:48:53;99016.75;;;-9.94;49.76
35694;BME280;21812;55.536;37.664;2023-02-22T08:51:19;99028.31;;;-9.84;49.77
35694;BME280;21812;55.536;37.664;2023-02-22T08:53:46;99028.13;;;-9.63;49.25
35694;BME280;21812;55.536;37.664;2023-02-22T08:56:12;99027.25;;;-9.30;49.20
35694;BME280;21812;55.536;37.664;2023-02-22T08:58:37;99030.84;;;-9.17;48.34
35694;BME280;21812;55.536;37.664;2023-02-22T09:01:03;99035.28;;;-9.03;48.02
35694;BME280;21812;55.536;37.664;2023-02-22T09:03:29;99034.44;;;-9.03;47.49
35694;BME280;21812;55.536;37.664;2023-02-22T09:05:54;99040.38;;;-9.17;47.63
35694;BME280;21812;55.536;37.664;2023-02-22T09:08:20;99041.19;;;-9.17;48.00
35694;BME280;21812;55.536;37.664;2023-02-22T09:10:45;99038.28;;;-8.95;47.79
35694;BME280;21812;55.536;37.664;2023-02-22T09:13:12;99038.94;;;-8.91;47.82
35694;BME280;21812;55.536;37.664;2023-02-22T09:15:38;99038.03;;;-8.74;48.20
35694;BME280;21812;55.536;37.664;2023-02-22T09:18:06;99026.25;;;-8.64;47.63
35694;BME280;21812;55.536;37.664;2023-02-22T09:20:35;99030.66;;;-8.50;47.37
35694;BME280;21812;55.536;37.664;2023-02-22T09:23:02;99039.09;;;-8.62;47.22
35694;BME280;21812;55.536;37.664;2023-02-22T09:25:28;99036.34;;;-8.59;47.80
35694;BME280;21812;55.536;37.664;2023-02-22T09:27:55;99046.53;;;-8.56;47.26
35694;BME280;21812;55.536;37.664;2023-02-22T09:30:25;99005.00;;;-8.85;46.79
35694;BME280;21812;55.536;37.664;2023-02-22T09:32:54;99013.41;;;-8.97;47.84
35694;BME280;21812;55.536;37.664;2023-02-22T09:35:20;99049.13;;;-8.56;47.90
35694;BME280;21812;55.536;37.664;2023-02-22T09:37:55;99010.56;;;-8.77;47.39
35694;BME280;21812;55.536;37.664;2023-02-22T09:40:22;99046.69;;;-8.59;47.12
35694;BME280;21812;55.536;37.664;2023-02-22T09:43:16;99038.25;;;-8.47;46.91
35694;BME280;21812;55.536;37.664;2023-02-22T09:51:33;99052.69;;;-7.98;46.76
35694;BME280;21812;55.536;37.664;2023-02-22T09:54:08;99018.13;;;-8.13;47.10
35694;BME280;21812;55.536;37.664;2023-02-22T09:56:36;99057.09;;;-7.70;46.13
35694;BME280;21812;55.536;37.664;2023-02-22T09:59:05;99057.09;;;-7.41;46.42
35694;BME280;21812;55.536;37.664;2023-02-22T10:01:45;99013.88;;;-7.55;45.70
35694;BME280;21812;55.536;37.664;2023-02-22T10:04:23;99058.31;;;-7.33;45.64
35694;BME280;21812;55.536;37.664;2023-02-22T10:07:02;99039.13;;;-7.16;45.71
35694;BME280;21812;55.536;37.664;2023-02-22T10:09:33;99059.13;;;-6.89;45.01
35694;BME280;21812;55.536;37.664;2023-02-22T10:21:05;99067.59;;;-6.45;42.47
35694;BME280;21812;55.536;37.664;2023-02-22T10:26:12;99059.31;;;-6.65;42.85
35694;BME280;21812;55.536;37.664;2023-02-22T10:31:45;99036.69;;;-7.04;42.55
35694;BME280;21812;55.536;37.664;2023-02-22T10:34:16;99070.41;;;-6.76;42.44
35694;BME280;21812;55.536;37.664;2023-02-22T10:36:47;99038.28;;;-6.75;42.42
35694;BME280;21812;55.536;37.664;2023-02-22T10:39:33;99064.91;;;-5.91;41.95
35694;BME280;21812;55.536;37.664;2023-02-22T10:42:06;99025.94;;;-5.78;41.55
35694;BME280;21812;55.536;37.664;2023-02-22T10:44:36;99062.91;;;-4.98;40.74
35694;BME280;21812;55.536;37.664;2023-02-22T10:47:07;99056.22;;;-4.89;40.21
35694;BME280;21812;55.536;37.664;2023-02-22T10:49:43;99053.59;;;-4.52;39.86
35694;BME280;21812;55.536;37.664;2023-02-22T10:52:21;99030.81;;;-4.37;37.88
35694;BME280;21812;55.536;37.664;2023-02-22T10:54:49;99062.69;;;-3.63;37.45
35694;BME280;21812;55.536;37.664;2023-02-22T10:57:31;99063.69;;;-3.07;36.42
35694;BME280;21812;55.536;37.664;2023-02-22T11:00:13;99063.28;;;-2.80;35.30
35694;BME280;21812;55.536;37.664;2023-02-22T11:02:49;99061.28;;;-2.77;35.30
35694;BME280;21812;55.536;37.664;2023-02-22T11:05:36;99075.09;;;-2.42;35.26
35694;BME280;21812;55.536;37.664;2023-02-22T11:11:02;99069.03;;;-1.78;34.20
35694;BME280;21812;55.536;37.664;2023-02-22T11:13:55;99031.44;;;-1.77;33.46
35694;BME280;21812;55.536;37.664;2023-02-22T11:16:32;99037.44;;;-1.04;32.65
35694;BME280;21812;55.536;37.664;2023-02-22T11:21:40;99085.50;;;-1.66;33.10
35694;BME280;21812;55.536;37.664;2023-02-22T11:24:11;99065.09;;;-3.15;34.14
35694;BME280;21812;55.536;37.664;2023-02-22T11:29:12;99071.25;;;-5.05;37.37
35694;BME280;21812;55.536;37.664;2023-02-22T11:31:42;99101.97;;;-4.98;38.33
35694;BME280;21812;55.536;37.664;2023-02-22T11:34:27;99100.59;;;-4.78;38.74
35694;BME280;21812;55.536;37.664;2023-02-22T11:36:54;99097.63;;;-4.60;37.39
35694;BME280;21812;55.536;37.664;2023-02-22T11:39:30;99091.00;;;-3.81;37.53
35694;BME280;21812;55.536;37.664;2023-02-22T11:42:22;99089.31;;;-1.91;34.32
35694;BME280;21812;55.536;37.664;2023-02-22T11:44:52;99082.34;;;-1.39;32.70
35694;BME280;21812;55.536;37.664;2023-02-22T11:47:32;99088.56;;;-0.18;33.67
35694;BME280;21812;55.536;37.664;2023-02-22T11:49:58;99084.94;;;0.51;31.29
35694;BME280;21812;55.536;37.664;2023-02-22T11:52:40;99057.09;;;0.68;29.43
35694;BME280;21812;55.536;37.664;2023-02-22T11:55:34;99061.41;;;0.96;29.55
35694;BME280;21812;55.536;37.664;2023-02-22T12:00:52;99065.00;;;2.41;28.28
35694;BME280;21812;55.536;37.664;2023-02-22T12:03:50;99094.66;;;3.21;27.33
35694;BME280;21812;55.536;37.664;2023-02-22T12:09:14;99102.00;;;1.22;27.72
35694;BME280;21812;55.536;37.664;2023-02-22T12:11:57;99101.13;;;0.07;29.31
35694;BME280;21812;55.536;37.664;2023-02-22T12:14:38;99116.44;;;0.51;29.79
35694;BME280;21812;55.536;37.664;2023-02-22T12:19:53;99139.19;;;0.99;28.95
35694;BME280;21812;55.536;37.664;2023-02-22T12:22:33;99099.00;;;1.16;28.22
35694;BME280;21812;55.536;37.664;2023-02-22T12:25:31;99127.63;;;0.63;29.47
35694;BME280;21812;55.536;37.664;2023-02-22T12:27:58;99140.38;;;0.67;28.42
35694;BME280;21812;55.536;37.664;2023-02-22T12:30:32;99152.22;;;0.91;29.11
35694;BME280;21812;55.536;37.664;2023-02-22T12:33:03;99121.94;;;1.98;51.54
35694;BME280;21812;55.536;37.664;2023-02-22T12:35:33;99138.75;;;2.77;44.70
35694;BME280;21812;55.536;37.664;2023-02-22T12:38:03;99151.53;;;2.27;30.86
35694;BME280;21812;55.536;37.664;2023-02-22T12:40:53;99154.88;;;1.28;33.53
35694;BME280;21812;55.536;37.664;2023-02-22T12:43:35;99124.19;;;0.04;30.19
35694;BME280;21812;55.536;37.664;2023-02-22T12:46:12;99164.50;;;-0.67;37.50
35694;BME280;21812;55.536;37.664;2023-02-22T12:49:45;99174.81;;;-0.75;36.10
35694;BME280;21812;55.536;37.664;2023-02-22T12:52:06;99144.34;;;-0.67;32.95
35694;BME280;21812;55.536;37.664;2023-02-22T12:59:52;99170.44;;;-3.14;46.39
35694;BME280;21812;55.536;37.664;2023-02-22T13:02:31;99145.06;;;-3.47;36.99
35694;BME280;21812;55.536;37.664;2023-02-22T13:05:01;99201.88;;;-3.86;36.04
35694;BME280;21812;55.536;37.664;2023-02-22T13:19:02;99224.38;;;-6.18;45.35
35694;BME280;21812;55.536;37.664;2023-02-22T13:21:18;99232.75;;;-6.00;49.32
35694;BME280;21812;55.536;37.664;2023-02-22T13:23:54;99195.00;;;-6.47;42.61
35694;BME280;21812;55.536;37.664;2023-02-22T13:26:40;99174.72;;;-6.69;43.10
35694;BME280;21812;55.536;37.664;2023-02-22T13:29:13;99245.09;;;-7.02;44.34
35694;BME280;21812;55.536;37.664;2023-02-22T13:42:24;99245.47;;;-7.85;45.60
35694;BME280;21812;55.536;37.664;2023-02-22T13:53:04;99258.34;;;-7.83;46.22
35694;BME280;21812;55.536;37.664;2023-02-22T13:55:33;99262.59;;;-7.82;48.91
35694;BME280;21812;55.536;37.664;2023-02-22T13:58:04;99262.19;;;-7.91;47.24
35694;BME280;21812;55.536;37.664;2023-02-22T14:00:48;99188.19;;;-8.42;47.58
35694;BME280;21812;55.536;37.664;2023-02-22T14:10:51;99254.31;;;-8.21;47.79
35694;BME280;21812;55.536;37.664;2023-02-22T14:13:24;99234.19;;;-8.16;47.70
35694;BME280;21812;55.536;37.664;2023-02-22T14:18:40;99273.53;;;-8.41;48.81
35694;BME280;21812;55.536;37.664;2023-02-22T14:21:12;99272.69;;;-8.57;50.50
35694;BME280;21812;55.536;37.664;2023-02-22T14:23:43;99225.19;;;-8.90;48.74
35694;BME280;21812;55.536;37.664;2023-02-22T14:26:13;99271.66;;;-8.71;48.80
35694;BME280;21812;55.536;37.664;2023-02-22T14:34:16;99240.91;;;-8.77;49.24
35694;BME280;21812;55.536;37.664;2023-02-22T14:36:58;99269.59;;;-8.64;50.89
35694;BME280;21812;55.536;37.664;2023-02-22T14:45:25;99293.72;;;-8.14;49.73
35694;BME280;21812;55.536;37.664;2023-02-22T14:55:58;99259.03;;;-8.77;52.24
35694;BME280;21812;55.536;37.664;2023-02-22T15:01:34;99301.25;;;-9.10;49.57
35694;BME280;21812;55.536;37.664;2023-02-22T15:04:26;99314.06;;;-9.08;50.53
35694;BME280;21812;55.536;37.664;2023-02-22T15:06:54;99309.31;;;-8.98;50.40
35694;BME280;21812;55.536;37.664;2023-02-22T15:09:25;99314.00;;;-8.89;56.48
35694;BME280;21812;55.536;37.664;2023-02-22T15:12:13;99324.66;;;-8.78;53.50
35694;BME280;21812;55.536;37.664;2023-02-22T15:14:44;99316.13;;;-8.97;50.56
35694;BME280;21812;55.536;37.664;2023-02-22T15:17:22;99296.94;;;-9.63;50.89
35694;BME280;21812;55.536;37.664;2023-02-22T15:19:52;99328.38;;;-9.72;51.30
35694;BME280;21812;55.536;37.664;2023-02-22T15:22:20;99337.25;;;-9.78;51.76
35694;BME280;21812;55.536;37.664;2023-02-22T15:24:57;99339.25;;;-9.85;52.08
35694;BME280;21812;55.536;37.664;2023-02-22T15:27:24;99336.06;;;-9.90;53.10